Archival Weather

Chicago O'Hare International

Chicago, Illinois (KORD)

Report from: Saturday, December 31, 2022 8:51 PM CST
Current time: Wednesday, May 29, 2024 4:05 AM CDT

Current weather – Weather history – Daily summaries
Weather forecast

Temperature2.8°C (37.0°F)
Wind chill-0.2°C (31.6°F)
Dew point-1.1°C (30.0°F)
Winds 6 kts (3.1 m/s, 6.9 mph) Southeast (140°)
Visibility8 mi. (12.9 km)
Clouds Ceiling: Broken clouds 10,000 ft. (3,048 m)
Altimeter29.86 in.Hg (1011 mB)
Relative humidity75 %
Density altitude-1,346 ft. (-410 m)
Sea-level pressure101.2 kPa (1012 mB, 29.88 in.Hg)
Remarks Automated weather observing station with precipitation discriminator
Pressure falling more quickly
Flight conditions Visual Meteorological Conditions
Raw dataKORD 010251Z 14006KT 8SM BKN100 03/M01 A2986 RMK AO2 SLP118 T00281011 58007
An error has occurred. This application may no longer respond until reloaded. Reload 🗙